Time;durP1;ratioP1;P1;durP2;ratioP2;P2;SDS_P1;SDS_P2;PMS_P1;PMS_P2;Temp;Humidity;BMP_temperature;BMP_pressure;BME280_temperature;BME280_humidity;BME280_pressure;Samples;Min_cycle;Max_cycle;Signal;HPM_P1;HPM_P2
2022/10/23 04:00:31;;;;;;;0.60;0.10;;;14.10;1.00;;;;;;5996637;23;20409;-78
2022/10/23 04:02:59;;;;;;;0.60;0.10;;;14.00;1.00;;;;;;4972122;28;20816;-77
2022/10/23 04:05:29;;;;;;;0.60;0.10;;;13.90;1.00;;;;;;4972370;28;20442;-77
2022/10/23 04:07:57;;;;;;;0.60;0.10;;;13.70;1.00;;;;;;4977451;28;20446;-77
2022/10/23 04:10:25;;;;;;;0.60;0.10;;;13.60;1.00;;;;;;4978715;28;20438;-77
2022/10/23 04:12:53;;;;;;;0.60;0.10;;;13.60;1.00;;;;;;4959471;29;20443;-75
2022/10/23 04:15:20;;;;;;;0.60;0.10;;;13.60;1.00;;;;;;4980954;23;21473;-75
2022/10/23 04:17:49;;;;;;;0.60;0.10;;;13.60;1.00;;;;;;4956405;28;20475;-76
2022/10/23 04:20:17;;;;;;;0.60;0.10;;;13.70;1.00;;;;;;4954472;28;20913;-76
2022/10/23 04:22:45;;;;;;;0.60;0.10;;;13.70;1.00;;;;;;4955474;29;20878;-75
2022/10/23 04:25:15;;;;;;;0.60;0.10;;;13.70;1.00;;;;;;4959141;28;20831;-76
2022/10/23 04:27:43;;;;;;;0.60;0.10;;;13.70;1.00;;;;;;4976840;28;20446;-76
2022/10/23 04:30:12;;;;;;;0.60;0.10;;;13.70;1.00;;;;;;4975852;28;20454;-75
2022/10/23 04:32:40;;;;;;;0.60;0.10;;;13.70;1.00;;;;;;4976221;28;20474;-76
2022/10/23 04:35:09;;;;;;;0.60;0.10;;;13.70;1.00;;;;;;4976244;28;20450;-75
2022/10/23 04:37:37;;;;;;;0.60;0.10;;;13.70;1.00;;;;;;4969102;28;20853;-75
2022/10/23 04:40:06;;;;;;;0.60;0.10;;;;;;;;;;4958230;29;20553;-75
2022/10/23 04:42:33;;;;;;;0.57;0.10;;;13.70;1.00;;;;;;4962084;28;20859;-74
2022/10/23 04:45:01;;;;;;;0.60;0.10;;;13.60;1.00;;;;;;4976053;28;20458;-75
2022/10/23 04:47:29;;;;;;;0.60;0.10;;;;;;;;;;4976185;28;20505;-75
2022/10/23 04:49:57;;;;;;;0.90;0.67;;;13.50;1.00;;;;;;4975509;28;20464;-75
2022/10/23 04:52:26;;;;;;;0.60;0.10;;;13.50;1.00;;;;;;4975472;28;20945;-75
2022/10/23 04:54:54;;;;;;;0.60;0.10;;;13.50;1.00;;;;;;4975514;28;20451;-75
2022/10/23 04:57:22;;;;;;;2.93;1.33;;;13.50;1.00;;;;;;4963455;28;20482;-76
2022/10/23 04:59:50;;;;;;;0.60;0.10;;;13.50;1.00;;;;;;4957157;29;20530;-76
2022/10/23 05:02:18;;;;;;;0.80;0.80;;;13.60;1.00;;;;;;4958000;28;20471;-75
2022/10/23 05:04:45;;;;;;;0.60;0.10;;;13.50;1.00;;;;;;4976076;28;20443;-75
2022/10/23 05:07:13;;;;;;;0.60;0.10;;;13.50;1.00;;;;;;4974710;29;20467;-74
2022/10/23 05:09:42;;;;;;;0.60;0.10;;;13.50;1.00;;;;;;4975137;29;20447;-75
2022/10/23 05:12:10;;;;;;;0.60;0.10;;;13.50;1.00;;;;;;4987159;28;20450;-75
2022/10/23 05:14:38;;;;;;;0.60;0.10;;;13.50;1.00;;;;;;4979386;28;20508;-76
2022/10/23 05:17:12;;;;;;;0.60;0.10;;;13.50;1.00;;;;;;4977767;28;20478;-75
2022/10/23 05:19:45;;;;;;;0.57;0.10;;;13.50;1.00;;;;;;4977219;28;20453;-75
2022/10/23 05:22:14;;;;;;;0.60;0.10;;;13.50;1.00;;;;;;4976245;28;20505;-75
2022/10/23 05:24:44;;;;;;;0.60;0.10;;;13.40;1.00;;;;;;4976823;28;20816;-75
2022/10/23 05:27:17;;;;;;;0.60;0.10;;;13.50;1.00;;;;;;4976137;28;20478;-76
2022/10/23 05:29:44;;;;;;;0.57;0.10;;;13.50;1.00;;;;;;4953868;28;20908;-75
2022/10/23 05:32:15;;;;;;;0.60;0.17;;;13.50;1.00;;;;;;4956110;28;20447;-75
2022/10/23 05:34:43;;;;;;;0.60;0.10;;;13.50;1.00;;;;;;4956292;29;20487;-75
2022/10/23 05:37:15;;;;;;;0.60;0.10;;;13.50;1.00;;;;;;4955211;29;21040;-75
2022/10/23 05:39:44;;;;;;;0.60;0.10;;;13.50;1.00;;;;;;4952361;29;20443;-75
2022/10/23 05:42:12;;;;;;;0.60;0.10;;;13.50;1.00;;;;;;4955947;29;20510;-76
2022/10/23 05:44:40;;;;;;;0.60;0.10;;;13.50;1.00;;;;;;4954903;28;20463;-75
2022/10/23 05:47:08;;;;;;;0.60;0.10;;;13.50;1.00;;;;;;4937007;29;20518;-75
2022/10/23 05:49:36;;;;;;;0.50;0.10;;;13.50;1.00;;;;;;4936844;29;20459;-75
2022/10/23 05:52:04;;;;;;;0.60;0.10;;;13.50;1.00;;;;;;4936684;29;20448;-75
2022/10/23 05:54:32;;;;;;;0.60;0.10;;;13.50;1.00;;;;;;4949880;28;21163;-75
2022/10/23 05:57:02;;;;;;;0.50;0.10;;;13.50;1.00;;;;;;4958067;28;20548;-75
2022/10/23 05:59:29;;;;;;;0.60;0.10;;;13.50;1.00;;;;;;4968291;28;20544;-75
2022/10/23 06:01:57;;;;;;;0.60;0.10;;;13.50;1.00;;;;;;4966085;28;20893;-75
2022/10/23 06:04:25;;;;;;;0.60;0.10;;;13.40;1.00;;;;;;4957942;28;20455;-75
2022/10/23 06:06:53;;;;;;;0.60;0.10;;;13.40;1.00;;;;;;4955268;29;20518;-75
2022/10/23 06:09:21;;;;;;;0.60;0.10;;;13.40;1.00;;;;;;4956692;29;20505;-75
2022/10/23 06:11:49;;;;;;;2.00;1.90;;;13.40;1.00;;;;;;4965556;28;20447;-75
2022/10/23 06:14:18;;;;;;;0.60;0.10;;;13.40;1.00;;;;;;4954127;29;20541;-74
2022/10/23 06:16:46;;;;;;;0.60;0.10;;;13.30;1.00;;;;;;4954473;29;20490;-75
2022/10/23 06:19:14;;;;;;;0.60;0.10;;;13.30;1.00;;;;;;4955639;29;20447;-75
2022/10/23 06:21:42;;;;;;;0.60;0.10;;;13.40;1.00;;;;;;4955676;29;20515;-75
2022/10/23 06:24:10;;;;;;;0.60;0.10;;;13.40;1.00;;;;;;4955307;28;20446;-75
2022/10/23 06:26:38;;;;;;;0.60;0.20;;;;;;;;;;4974663;28;21036;-76
2022/10/23 06:29:06;;;;;;;0.60;0.10;;;13.40;1.00;;;;;;4974671;28;20450;-75
2022/10/23 06:31:35;;;;;;;0.50;0.10;;;13.40;1.00;;;;;;4974423;28;20442;-75
2022/10/23 06:34:04;;;;;;;0.50;0.10;;;;;;;;;;4974333;28;20446;-75
2022/10/23 06:36:32;;;;;;;0.60;0.10;;;13.40;1.00;;;;;;4974077;28;20470;-75
2022/10/23 06:39:00;;;;;;;0.50;0.10;;;13.40;1.00;;;;;;4958623;28;20467;-76
2022/10/23 06:41:28;;;;;;;0.60;0.10;;;13.50;1.00;;;;;;4954854;29;20482;-74
2022/10/23 06:43:56;;;;;;;0.60;0.10;;;13.50;1.00;;;;;;4954651;29;20513;-75
2022/10/23 06:46:25;;;;;;;0.60;0.10;;;13.50;1.00;;;;;;4955200;29;20808;-75
2022/10/23 06:48:54;;;;;;;0.60;0.10;;;13.50;1.00;;;;;;4955139;29;20482;-76
2022/10/23 06:51:22;;;;;;;0.60;0.10;;;13.50;1.00;;;;;;4956085;29;20451;-76
2022/10/23 06:53:50;;;;;;;0.60;0.20;;;13.50;1.00;;;;;;4955344;28;20455;-74
2022/10/23 06:56:18;;;;;;;0.60;0.10;;;13.60;1.00;;;;;;4955389;29;20462;-74
2022/10/23 06:58:46;;;;;;;0.60;0.10;;;13.50;1.00;;;;;;4956433;29;20428;-75
2022/10/23 07:01:15;;;;;;;0.60;0.20;;;9.90;1.00;;;;;;4955994;29;20518;-75
2022/10/23 07:03:43;;;;;;;0.60;0.20;;;13.50;1.00;;;;;;4955405;29;20942;-74
2022/10/23 07:06:12;;;;;;;0.60;0.10;;;13.50;1.00;;;;;;4958173;28;20475;-75
2022/10/23 07:08:40;;;;;;;0.60;0.10;;;13.50;1.00;;;;;;4978455;28;20473;-76
2022/10/23 07:11:10;;;;;;;0.50;0.10;;;13.50;1.00;;;;;;4978231;28;20449;-75
2022/10/23 07:13:39;;;;;;;0.57;0.10;;;13.60;1.00;;;;;;4978728;28;20473;-76
2022/10/23 07:16:12;;;;;;;0.50;0.10;;;13.60;1.00;;;;;;4978461;28;20996;-76
2022/10/23 07:18:40;;;;;;;0.60;0.10;;;13.70;1.00;;;;;;4980082;28;20497;-75
2022/10/23 07:21:08;;;;;;;0.60;0.20;;;13.70;1.00;;;;;;4979643;28;20840;-75
2022/10/23 07:23:37;;;;;;;0.60;0.10;;;13.80;1.00;;;;;;4967921;28;20451;-76
2022/10/23 07:26:07;;;;;;;0.60;0.10;;;13.90;1.00;;;;;;4961530;29;20557;-75
2022/10/23 07:28:36;;;;;;;0.60;0.10;;;13.90;1.00;;;;;;4962657;29;20455;-75
2022/10/23 07:31:04;;;;;;;0.50;0.10;;;13.90;1.00;;;;;;4960251;29;20506;-75
2022/10/23 07:33:32;;;;;;;0.60;0.10;;;14.00;1.00;;;;;;4959104;29;20439;-76
2022/10/23 07:36:00;;;;;;;0.60;0.10;;;14.00;1.00;;;;;;4978792;28;20474;-75
2022/10/23 07:38:28;;;;;;;0.60;0.10;;;14.00;1.00;;;;;;4979121;28;20505;-75
2022/10/23 07:40:59;;;;;;;0.60;0.10;;;14.00;1.00;;;;;;4982353;28;20449;-74
2022/10/23 07:43:27;;;;;;;0.60;0.10;;;14.00;1.00;;;;;;4993136;28;20446;-75
2022/10/23 07:45:55;;;;;;;0.60;0.10;;;14.10;1.00;;;;;;4995057;28;20469;-75
2022/10/23 07:48:23;;;;;;;0.60;0.10;;;14.10;1.00;;;;;;4986100;28;20463;-75
2022/10/23 07:50:51;;;;;;;0.57;0.10;;;;;;;;;;4973747;29;20463;-75
2022/10/23 07:53:22;;;;;;;0.60;0.10;;;14.10;1.00;;;;;;4963245;29;20454;-75
2022/10/23 07:55:54;;;;;;;0.60;0.10;;;14.20;1.00;;;;;;4960565;28;20537;-75
2022/10/23 07:58:25;;;;;;;0.60;0.10;;;14.20;1.00;;;;;;4958539;29;20496;-75
2022/10/23 08:00:57;;;;;;;0.60;0.10;;;14.20;1.00;;;;;;4958380;29;20462;-74
2022/10/23 08:03:25;;;;;;;0.60;0.10;;;14.20;1.00;;;;;;4958285;29;20478;-75
2022/10/23 08:05:54;;;;;;;0.70;0.60;;;14.30;1.00;;;;;;4958107;29;20459;-75
2022/10/23 08:08:23;;;;;;;0.60;0.10;;;14.30;1.00;;;;;;4958616;28;20958;-75
2022/10/23 08:10:52;;;;;;;0.60;0.10;;;14.30;1.00;;;;;;4964264;28;20856;-75
2022/10/23 08:13:20;;;;;;;0.60;0.10;;;14.30;1.00;;;;;;4969325;28;20478;-76
2022/10/23 08:15:51;;;;;;;0.60;0.10;;;14.30;1.00;;;;;;4957961;29;20467;-75
2022/10/23 08:18:19;;;;;;;0.60;0.10;;;14.40;1.00;;;;;;4957061;28;20443;-75
2022/10/23 08:20:51;;;;;;;0.60;0.10;;;14.40;1.00;;;;;;4957786;29;20486;-75
2022/10/23 08:23:19;;;;;;;0.60;0.10;;;14.40;1.00;;;;;;4957599;29;20518;-76
2022/10/23 08:25:47;;;;;;;0.60;0.10;;;14.50;1.00;;;;;;4957944;29;20473;-76
2022/10/23 08:28:15;;;;;;;0.60;0.10;;;14.60;1.00;;;;;;4957422;29;20454;-76
2022/10/23 08:30:43;;;;;;;0.60;0.10;;;14.60;1.00;;;;;;4957173;29;20443;-76
2022/10/23 08:33:13;;;;;;;0.60;0.13;;;14.60;1.00;;;;;;4957395;29;20520;-75
2022/10/23 08:35:41;;;;;;;0.60;0.10;;;14.70;1.00;;;;;;4957422;28;20478;-75
2022/10/23 08:38:11;;;;;;;0.60;0.10;;;14.70;1.00;;;;;;4957925;28;20450;-76
2022/10/23 08:40:43;;;;;;;0.60;0.10;;;14.70;1.00;;;;;;4957595;29;21009;-76
2022/10/23 08:43:17;;;;;;;0.60;0.10;;;14.70;1.00;;;;;;4956997;29;20505;-76
2022/10/23 08:45:48;;;;;;;0.60;0.10;;;14.90;1.00;;;;;;4958522;29;20463;-75
2022/10/23 08:48:30;;;;;;;0.60;0.10;;;14.90;1.00;;;;;;4957556;29;20870;-75
2022/10/23 08:51:05;;;;;;;0.60;0.10;;;14.90;1.00;;;;;;4957301;28;20457;-76
2022/10/23 08:53:40;;;;;;;1.10;0.53;;;14.90;1.00;;;;;;4956671;28;20458;-77
2022/10/23 08:56:14;;;;;;;0.60;0.20;;;14.90;99.90;;;;;;4957583;29;20470;-76
2022/10/23 08:58:46;;;;;;;0.60;0.20;;;14.90;99.90;;;;;;4957075;29;20447;-76
2022/10/23 09:01:30;;;;;;;0.60;0.10;;;14.90;99.90;;;;;;4957924;29;20453;-76
2022/10/23 09:04:00;;;;;;;0.60;0.10;;;15.00;99.90;;;;;;4957740;29;20497;-75
2022/10/23 09:06:36;;;;;;;0.60;0.10;;;15.00;99.90;;;;;;4957182;29;20542;-75
2022/10/23 09:09:22;;;;;;;0.60;0.10;;;15.10;99.90;;;;;;4958117;29;20443;-75
2022/10/23 09:11:59;;;;;;;0.60;0.10;;;15.10;99.90;;;;;;4958230;29;20479;-75
2022/10/23 09:15:09;;;;;;;1.10;0.60;;;15.10;99.90;;;;;;4958524;29;20537;-76
2022/10/23 09:17:39;;;;;;;0.60;0.10;;;15.20;99.90;;;;;;4943444;29;20953;-76
2022/10/23 09:20:18;;;;;;;0.60;0.10;;;15.20;99.90;;;;;;4957442;28;20454;-76
2022/10/23 09:22:47;;;;;;;0.60;0.10;;;15.20;99.90;;;;;;4956181;29;20509;-74
2022/10/23 09:25:21;;;;;;;0.60;0.10;;;15.30;99.90;;;;;;4956567;29;20501;-75
2022/10/23 09:27:52;;;;;;;0.60;0.10;;;15.30;99.90;;;;;;4957199;28;21012;-76
2022/10/23 09:30:30;;;;;;;0.60;0.10;;;15.40;99.90;;;;;;4959165;28;20877;-75
2022/10/23 09:32:59;;;;;;;0.60;0.10;;;15.40;99.90;;;;;;4957579;28;20438;-76
2022/10/23 09:35:29;;;;;;;0.60;0.10;;;15.50;99.90;;;;;;4956952;29;20459;-77
2022/10/23 09:37:58;;;;;;;0.60;0.10;;;15.40;99.90;;;;;;4956745;29;20451;-75
2022/10/23 09:40:32;;;;;;;0.60;0.10;;;15.50;99.90;;;;;;4956440;29;20447;-76
2022/10/23 09:43:02;;;;;;;0.60;0.10;;;15.50;99.90;;;;;;4960712;28;20513;-75
2022/10/23 09:45:32;;;;;;;0.60;0.10;;;15.60;99.90;;;;;;4963348;28;20470;-74
2022/10/23 09:48:11;;;;;;;0.60;0.10;;;15.60;99.90;;;;;;4974261;28;20450;-75
2022/10/23 09:50:52;;;;;;;0.60;0.10;;;15.70;99.90;;;;;;4976988;28;20445;-75
2022/10/23 09:53:30;;;;;;;0.60;0.10;;;15.80;99.90;;;;;;4976625;28;20920;-76
2022/10/23 09:56:01;;;;;;;0.60;0.20;;;15.90;99.90;;;;;;4968077;28;20565;-76
2022/10/23 09:58:36;;;;;;;0.60;0.10;;;16.00;99.90;;;;;;4976826;28;20800;-76
2022/10/23 10:01:04;;;;;;;0.60;0.20;;;16.00;99.90;;;;;;4964297;28;20451;-76
2022/10/23 10:03:32;;;;;;;0.60;0.10;;;16.10;99.90;;;;;;4954616;28;20495;-75
2022/10/23 10:06:04;;;;;;;0.60;0.10;;;16.20;99.90;;;;;;4963021;28;20538;-76
2022/10/23 10:08:43;;;;;;;0.60;0.10;;;16.20;99.90;;;;;;4969658;28;20446;-76
2022/10/23 10:11:15;;;;;;;0.60;0.20;;;16.20;99.90;;;;;;4965106;28;20484;-75
2022/10/23 10:14:15;;;;;;;0.60;0.10;;;16.20;99.90;;;;;;4955145;28;20480;-76
2022/10/23 10:16:50;;;;;;;0.60;0.10;;;16.30;99.90;;;;;;4995124;23;20501;-75
2022/10/23 10:19:38;;;;;;;0.60;0.10;;;16.30;99.90;;;;;;4968822;28;20461;-77
2022/10/23 10:22:16;;;;;;;0.60;0.10;;;16.40;99.90;;;;;;4974630;28;20461;-79
2022/10/23 10:24:52;;;;;;;0.60;0.10;;;16.50;99.90;;;;;;4974604;28;20971;-74
2022/10/23 10:27:35;;;;;;;0.60;0.10;;;16.60;99.90;;;;;;4974526;28;20509;-74
2022/10/23 10:30:12;;;;;;;0.60;0.10;;;16.60;99.90;;;;;;4966206;28;20953;-75
2022/10/23 10:32:46;;;;;;;0.60;0.10;;;16.70;99.90;;;;;;4971258;28;20493;-75
2022/10/23 10:35:25;;;;;;;0.60;0.10;;;16.70;99.90;;;;;;4974850;28;20944;-74
2022/10/23 10:38:22;;;;;;;1.10;0.90;;;16.70;99.90;;;;;;4972360;28;20536;-76
2022/10/23 10:41:10;;;;;;;0.60;0.10;;;16.80;99.90;;;;;;4968983;28;20533;-75
2022/10/23 10:43:47;;;;;;;0.60;0.10;;;16.80;99.90;;;;;;4972478;28;20841;-76
2022/10/23 10:46:24;;;;;;;0.60;0.10;;;16.80;99.90;;;;;;4974122;28;20493;-75
2022/10/23 10:48:59;;;;;;;0.60;0.10;;;16.80;99.90;;;;;;4962798;28;20467;-74
2022/10/23 10:51:33;;;;;;;3.50;2.50;;;16.80;99.90;;;;;;4968320;28;20460;-75
2022/10/23 10:54:21;;;;;;;0.60;0.10;;;16.90;99.90;;;;;;4966674;28;20513;-77
2022/10/23 10:56:49;;;;;;;0.60;0.20;;;16.90;99.90;;;;;;4973319;28;20486;-75
2022/10/23 10:59:23;;;;;;;0.60;0.10;;;16.90;99.90;;;;;;4960902;28;20535;-75
2022/10/23 11:01:56;;;;;;;0.60;0.10;;;16.90;99.90;;;;;;4960910;28;20501;-76
2022/10/23 11:04:32;;;;;;;0.60;0.10;;;16.90;99.90;;;;;;4964185;28;20616;-74
2022/10/23 11:07:06;;;;;;;0.60;0.10;;;17.00;99.90;;;;;;4962138;28;20453;-75
2022/10/23 11:09:36;;;;;;;0.60;0.10;;;17.00;99.90;;;;;;4973731;28;20508;-76
2022/10/23 11:12:04;;;;;;;0.60;0.10;;;17.00;99.90;;;;;;4973157;28;20498;-76
2022/10/23 11:14:34;;;;;;;0.60;0.10;;;17.00;99.90;;;;;;4973539;28;20806;-75
2022/10/23 11:17:08;;;;;;;0.60;0.10;;;16.90;99.90;;;;;;4968850;28;20538;-77
2022/10/23 11:19:42;;;;;;;0.60;0.10;;;17.00;99.90;;;;;;4961073;28;20543;-74
2022/10/23 11:22:17;;;;;;;0.60;0.10;;;17.00;99.90;;;;;;4966689;28;20462;-75
2022/10/23 11:25:04;;;;;;;0.60;0.10;;;17.10;99.90;;;;;;4968808;28;20481;-74
2022/10/23 11:27:46;;;;;;;0.60;0.10;;;17.10;99.90;;;;;;4972256;28;20887;-74
2022/10/23 11:30:22;;;;;;;0.60;0.10;;;17.10;99.90;;;;;;4966210;28;21175;-74
2022/10/23 11:33:13;;;;;;;0.60;0.10;;;17.10;99.90;;;;;;4962418;28;20758;-73
2022/10/23 11:35:53;;;;;;;0.60;0.10;;;17.30;99.90;;;;;;4973215;28;20485;-76
2022/10/23 11:38:26;;;;;;;0.60;0.10;;;17.30;99.90;;;;;;4974038;28;20509;-74
2022/10/23 11:40:59;;;;;;;0.60;0.10;;;17.30;99.90;;;;;;4972966;28;20649;-75
2022/10/23 11:43:29;;;;;;;0.60;0.10;;;17.30;99.90;;;;;;4972167;28;21015;-75
2022/10/23 11:45:58;;;;;;;0.60;0.10;;;17.40;99.90;;;;;;4972922;28;20474;-77
2022/10/23 11:48:38;;;;;;;0.60;0.10;;;17.40;99.90;;;;;;4967391;28;20973;-75
2022/10/23 11:51:25;;;;;;;0.60;0.10;;;17.50;99.90;;;;;;4976027;28;20850;-74
2022/10/23 11:53:53;;;;;;;0.60;0.10;;;17.60;99.90;;;;;;4973046;28;20514;-74
2022/10/23 11:56:30;;;;;;;0.60;0.10;;;17.70;99.90;;;;;;4978420;28;20515;-73
2022/10/23 11:58:59;;;;;;;0.60;0.10;;;17.70;99.90;;;;;;4971756;28;20573;-74
2022/10/23 12:01:34;;;;;;;0.60;0.10;;;17.70;99.90;;;;;;4970317;28;20518;-75
2022/10/23 12:04:06;;;;;;;0.60;0.10;;;17.70;99.90;;;;;;4973699;28;20477;-74
2022/10/23 12:06:41;;;;;;;0.60;0.10;;;17.80;99.90;;;;;;4981876;28;20462;-77
2022/10/23 12:09:23;;;;;;;0.60;0.13;;;17.90;99.90;;;;;;4976794;28;20492;-74
2022/10/23 12:12:12;;;;;;;0.60;0.10;;;17.90;99.90;;;;;;4976374;28;20457;-76
2022/10/23 12:14:42;;;;;;;0.60;0.10;;;18.10;99.90;;;;;;4963151;28;20502;-76
2022/10/23 12:17:30;;;;;;;0.60;0.13;;;18.40;99.90;;;;;;4956423;29;20933;-76
2022/10/23 12:20:12;;;;;;;0.60;0.10;;;18.50;99.90;;;;;;4956484;29;20463;-75
2022/10/23 12:22:47;;;;;;;0.60;0.10;;;18.70;99.90;;;;;;4955130;29;20490;-75
2022/10/23 12:25:17;;;;;;;0.60;0.10;;;18.80;99.90;;;;;;4954434;29;20509;-76
2022/10/23 12:27:53;;;;;;;0.60;0.10;;;18.80;99.90;;;;;;4956060;29;20525;-76
2022/10/23 12:30:24;;;;;;;0.60;0.10;;;18.90;99.90;;;;;;4968109;28;20481;-77
2022/10/23 12:33:15;;;;;;;0.60;0.10;;;19.00;99.90;;;;;;4973883;28;20458;-75
2022/10/23 12:36:01;;;;;;;0.60;0.10;;;19.20;99.90;;;;;;4974922;28;20454;-75
2022/10/23 12:38:30;;;;;;;0.60;0.10;;;19.20;99.90;;;;;;4975094;28;20446;-74
2022/10/23 12:41:12;;;;;;;0.60;0.10;;;19.30;99.90;;;;;;4972540;28;20438;-77
2022/10/23 12:43:43;;;;;;;0.60;0.10;;;19.30;99.90;;;;;;4955598;29;20450;-74
2022/10/23 12:46:28;;;;;;;0.60;0.20;;;19.50;99.90;;;;;;4957036;28;20843;-75
2022/10/23 12:48:57;;;;;;;0.60;0.10;;;19.50;99.90;;;;;;4959680;28;20861;-74
2022/10/23 12:51:27;;;;;;;0.60;0.10;;;19.60;99.90;;;;;;4975191;28;21019;-77
2022/10/23 12:53:55;;;;;;;0.60;0.20;;;19.60;99.90;;;;;;4974869;28;20446;-80
2022/10/23 12:56:24;;;;;;;0.60;0.20;;;19.70;99.90;;;;;;4974939;28;20509;-73
2022/10/23 12:58:55;;;;;;;0.60;0.20;;;19.70;99.40;;;;;;4975005;28;20529;-73
2022/10/23 13:01:26;;;;;;;0.60;0.20;;;19.70;96.60;;;;;;4975067;28;20500;-75
2022/10/23 13:03:59;;;;;;;0.60;0.10;;;19.70;96.70;;;;;;4959730;28;20487;-73
2022/10/23 13:06:27;;;;;;;0.60;0.10;;;19.70;91.90;;;;;;4974961;28;20715;-75
2022/10/23 13:08:57;;;;;;;0.60;0.10;;;19.70;94.40;;;;;;4975090;28;20457;-75
2022/10/23 13:11:26;;;;;;;0.60;0.10;;;19.60;96.80;;;;;;4975390;28;20530;-76
2022/10/23 13:13:56;;;;;;;0.60;0.10;;;19.60;66.90;;;;;;4974767;28;20478;-74
2022/10/23 13:16:26;;;;;;;0.60;0.10;;;19.60;1.00;;;;;;4975714;28;20501;-75
2022/10/23 13:18:54;;;;;;;0.60;0.20;;;19.50;1.00;;;;;;4975242;28;20528;-75
2022/10/23 13:21:24;;;;;;;0.60;0.17;;;19.50;1.00;;;;;;4970438;28;20963;-74
2022/10/23 13:23:53;;;;;;;0.60;0.10;;;19.50;1.00;;;;;;4964484;28;21021;-78
2022/10/23 13:26:28;;;;;;;0.60;0.10;;;19.50;1.00;;;;;;4974069;28;20525;-74
2022/10/23 13:28:57;;;;;;;0.60;0.10;;;19.50;4.80;;;;;;4974032;28;20941;-75
2022/10/23 13:31:29;;;;;;;0.60;0.10;;;19.50;12.70;;;;;;4972357;28;20545;-74
2022/10/23 13:34:14;;;;;;;0.60;0.10;;;19.50;1.00;;;;;;4972092;28;20492;-77
2022/10/23 13:36:51;;;;;;;0.60;0.10;;;19.50;1.00;;;;;;4973881;28;20501;-76
2022/10/23 13:39:24;;;;;;;0.60;0.20;;;19.50;1.00;;;;;;4976657;28;20447;-79
2022/10/23 13:41:52;;;;;;;0.60;0.10;;;19.50;1.00;;;;;;4974474;28;20462;-77
2022/10/23 13:44:24;;;;;;;0.60;0.10;;;19.50;1.00;;;;;;4973922;28;20892;-77
2022/10/23 13:46:52;;;;;;;0.60;0.20;;;19.50;1.00;;;;;;4971923;28;20482;-77
2022/10/23 13:49:20;;;;;;;0.60;0.10;;;19.50;1.70;;;;;;4961506;28;20509;-76
2022/10/23 13:51:51;;;;;;;0.60;0.10;;;19.60;2.10;;;;;;4965554;28;20468;-76
2022/10/23 13:54:23;;;;;;;0.60;0.10;;;19.60;3.10;;;;;;4972583;28;20474;-76
2022/10/23 13:56:52;;;;;;;0.60;0.10;;;19.60;1.00;;;;;;4969427;28;20561;-77
2022/10/23 13:59:22;;;;;;;0.60;0.20;;;19.50;1.00;;;;;;4955429;29;20447;-77
2022/10/23 14:01:51;;;;;;;0.60;0.10;;;19.50;1.00;;;;;;4954298;29;20450;-76
2022/10/23 14:04:19;;;;;;;0.60;0.20;;;19.50;1.00;;;;;;4955120;29;20455;-76
2022/10/23 14:06:47;;;;;;;0.60;0.10;;;19.50;1.00;;;;;;4956219;29;20471;-76
2022/10/23 14:09:17;;;;;;;0.60;0.10;;;19.50;1.00;;;;;;4969616;28;20530;-75
2022/10/23 14:11:45;;;;;;;0.60;0.10;;;19.50;1.00;;;;;;4961586;28;20530;-76
2022/10/23 14:14:13;;;;;;;0.60;0.10;;;19.50;1.00;;;;;;4956011;29;20498;-76
2022/10/23 14:16:42;;;;;;;0.60;0.10;;;19.50;1.00;;;;;;4953546;28;20993;-75
2022/10/23 14:19:11;;;;;;;0.60;0.10;;;19.50;3.80;;;;;;4953873;29;21027;-77
2022/10/23 14:21:38;;;;;;;0.60;0.10;;;19.50;3.00;;;;;;4959763;29;20444;-76
2022/10/23 14:24:07;;;;;;;0.60;0.20;;;19.50;3.70;;;;;;4963230;28;20450;-76
2022/10/23 14:26:35;;;;;;;0.60;0.10;;;19.40;5.40;;;;;;4966612;28;20522;-76
2022/10/23 14:29:03;;;;;;;0.60;0.10;;;19.40;8.40;;;;;;4954040;29;20447;-77
2022/10/23 14:31:38;;;;;;;0.60;0.10;;;19.40;12.40;;;;;;4954571;29;20545;-76
2022/10/23 14:34:07;;;;;;;0.60;0.10;;;19.40;16.20;;;;;;4954221;29;20469;-74
2022/10/23 14:36:35;;;;;;;0.60;0.10;;;19.40;21.60;;;;;;4954330;28;20463;-76
2022/10/23 14:39:17;;;;;;;0.60;0.10;;;19.40;25.50;;;;;;4954477;29;20447;-76
2022/10/23 14:41:45;;;;;;;0.60;0.10;;;19.40;30.90;;;;;;4973132;28;21005;-75
2022/10/23 14:44:13;;;;;;;0.60;0.10;;;19.40;34.10;;;;;;4972629;28;21035;-76
2022/10/23 14:46:40;;;;;;;0.60;0.10;;;19.40;30.90;;;;;;4973074;28;20482;-75
2022/10/23 14:49:10;;;;;;;0.60;0.20;;;19.40;34.40;;;;;;4966247;28;20461;-74
2022/10/23 14:51:37;;;;;;;0.60;0.17;;;19.40;34.80;;;;;;4959763;28;20459;-76
2022/10/23 14:54:07;;;;;;;0.60;0.10;;;19.40;39.60;;;;;;4953383;29;20447;-79
2022/10/23 14:56:38;;;;;;;0.60;0.10;;;19.40;30.90;;;;;;4955196;29;20812;-77
2022/10/23 14:59:06;;;;;;;0.60;0.10;;;19.30;34.50;;;;;;4968759;28;20455;-74
2022/10/23 15:01:35;;;;;;;0.60;0.10;;;19.30;34.30;;;;;;4973847;28;20952;-74
2022/10/23 15:04:04;;;;;;;0.60;0.10;;;19.30;34.20;;;;;;4973210;28;20458;-76
2022/10/23 15:06:34;;;;;;;0.60;0.10;;;19.20;30.80;;;;;;4957531;28;20627;-74
2022/10/23 15:09:03;;;;;;;0.60;0.10;;;19.20;42.70;;;;;;4954012;29;20487;-76
2022/10/23 15:11:31;;;;;;;0.60;0.10;;;19.20;52.20;;;;;;4965222;28;20493;-75
2022/10/23 15:14:00;;;;;;;0.60;0.10;;;19.10;59.70;;;;;;4972836;28;20477;-75
2022/10/23 15:16:31;;;;;;;0.60;0.10;;;19.00;62.80;;;;;;4973330;28;20496;-77
2022/10/23 15:19:00;;;;;;;0.60;0.10;;;19.00;70.60;;;;;;4973119;28;20513;-78
2022/10/23 15:21:28;;;;;;;0.60;0.10;;;19.00;78.60;;;;;;4966599;28;21118;-76
2022/10/23 15:23:57;;;;;;;0.60;0.10;;;18.90;82.80;;;;;;4960709;28;20518;-78
2022/10/23 15:26:25;;;;;;;0.60;0.10;;;18.90;85.70;;;;;;4955148;29;20542;-76
2022/10/23 15:28:54;;;;;;;0.60;0.13;;;18.90;91.00;;;;;;4969885;28;20489;-75
2022/10/23 15:31:45;;;;;;;0.60;0.10;;;18.90;94.20;;;;;;4976931;28;20589;-76
2022/10/23 15:34:16;;;;;;;0.60;0.20;;;18.80;98.80;;;;;;4976243;28;20537;-74
2022/10/23 15:36:45;;;;;;;0.60;0.10;;;18.80;99.90;;;;;;4976870;28;20466;-74
2022/10/23 15:39:18;;;;;;;0.60;0.10;;;18.80;99.90;;;;;;4977080;28;20544;-74
2022/10/23 15:41:46;;;;;;;0.60;0.10;;;18.80;99.90;;;;;;4977121;28;20438;-74
2022/10/23 15:44:16;;;;;;;0.60;0.20;;;18.80;99.90;;;;;;4976502;28;20449;-74
2022/10/23 15:46:44;;;;;;;0.60;0.20;;;18.70;99.90;;;;;;4976312;28;20519;-76
2022/10/23 15:49:13;;;;;;;0.60;0.10;;;18.70;99.90;;;;;;4978032;28;20450;-74
2022/10/23 15:51:41;;;;;;;0.60;0.10;;;18.70;99.90;;;;;;4979878;28;20457;-76
2022/10/23 15:54:15;;;;;;;0.60;0.10;;;18.70;99.90;;;;;;4982082;28;20461;-76
2022/10/23 15:56:45;;;;;;;0.60;0.10;;;18.60;99.90;;;;;;4983137;28;20489;-76
2022/10/23 15:59:13;;;;;;;0.60;0.10;;;18.60;99.90;;;;;;4980239;28;21152;-74
2022/10/23 16:01:41;;;;;;;0.60;0.10;;;18.60;99.90;;;;;;4978780;28;20454;-74
2022/10/23 16:04:09;;;;;;;0.60;0.10;;;18.60;99.90;;;;;;4979374;28;20529;-76
2022/10/23 16:06:38;;;;;;;0.60;0.20;;;18.50;99.90;;;;;;4979416;28;20544;-76
2022/10/23 16:09:06;;;;;;;0.60;0.10;;;18.50;99.90;;;;;;4980366;28;20547;-77
2022/10/23 16:11:36;;;;;;;0.60;0.10;;;18.50;99.90;;;;;;4964269;28;20946;-75
2022/10/23 16:14:06;;;;;;;0.60;0.13;;;18.50;99.90;;;;;;4972899;28;20454;-74
2022/10/23 16:16:35;;;;;;;0.60;0.10;;;18.50;99.90;;;;;;4977647;28;20466;-77
2022/10/23 16:19:03;;;;;;;0.60;0.10;;;18.50;99.90;;;;;;4978015;28;20803;-76
2022/10/23 16:21:33;;;;;;;0.60;0.10;;;18.40;99.90;;;;;;4977335;28;20450;-78
2022/10/23 16:24:02;;;;;;;0.60;0.10;;;18.40;99.90;;;;;;4976834;28;20525;-76
2022/10/23 16:26:31;;;;;;;0.60;0.10;;;18.40;99.90;;;;;;4976743;28;20486;-76
2022/10/23 16:29:01;;;;;;;0.60;0.10;;;18.40;99.90;;;;;;4977951;28;20984;-76
2022/10/23 16:31:31;;;;;;;0.60;0.20;;;18.40;99.90;;;;;;4977006;28;20485;-76
2022/10/23 16:34:03;;;;;;;0.60;0.10;;;18.30;99.90;;;;;;4975922;28;20561;-77
2022/10/23 16:36:31;;;;;;;0.60;0.10;;;18.30;99.90;;;;;;4977453;28;20479;-77
2022/10/23 16:39:02;;;;;;;0.60;0.10;;;18.30;99.90;;;;;;4976031;28;20465;-76
2022/10/23 16:41:30;;;;;;;0.60;0.10;;;18.30;99.90;;;;;;4977278;28;21027;-76
2022/10/23 16:43:57;;;;;;;0.60;0.10;;;18.30;99.90;;;;;;4978704;28;20450;-76
2022/10/23 16:46:25;;;;;;;0.60;0.10;;;18.20;99.90;;;;;;4977895;28;20486;-77
2022/10/23 16:48:54;;;;;;;0.60;0.13;;;18.20;99.90;;;;;;4977797;28;20450;-77
2022/10/23 16:51:24;;;;;;;0.60;0.13;;;18.20;99.90;;;;;;4972389;28;20530;-77
2022/10/23 16:53:53;;;;;;;0.60;0.10;;;18.20;99.90;;;;;;4966115;28;21000;-78
2022/10/23 16:56:23;;;;;;;0.60;0.10;;;18.20;99.90;;;;;;4970061;28;20715;-76
2022/10/23 16:58:51;;;;;;;0.60;0.10;;;18.20;99.90;;;;;;4973464;28;20446;-77
2022/10/23 17:01:22;;;;;;;0.60;0.10;;;18.20;99.90;;;;;;4968734;28;20486;-75
2022/10/23 17:03:51;;;;;;;0.60;0.10;;;18.20;99.90;;;;;;4970432;28;20524;-77
2022/10/23 17:06:22;;;;;;;0.60;0.20;;;18.20;99.90;;;;;;4957403;29;21181;-78
2022/10/23 17:08:50;;;;;;;0.60;0.20;;;18.20;99.90;;;;;;4961573;28;20949;-78
2022/10/23 17:11:20;;;;;;;0.60;0.10;;;18.20;99.90;;;;;;4976435;28;20448;-77
2022/10/23 17:13:50;;;;;;;0.60;0.10;;;18.20;99.90;;;;;;4976361;28;20466;-77